Terminal Aerodrome Forecast
Issued by NWS

Home | Current Version | Previous Version | Text Only | Print | Product List | Glossary On
Versions: 1 2 3 4 5 6 7 8 9 10 11 12 13 14 15 16
000
FTUS45 KRIW 021122
TAFCOD
TAF
KCOD 021122Z 0212/0312 VRB06KT P6SM FEW150
     FM021700 02010KT P6SM SCT110
     FM022100 36011KT P6SM VCTS SCT080CB BKN110
     FM030500 VRB05KT P6SM SCT120
      AMD LTD TO CLD VIS AND WIND=

USA.gov is the U.S. government's official web portal to all federal, state and local government web resources and services.